createdAt,value
2023-04-08T00:03:08.128Z,9.37
2023-04-08T00:08:07.660Z,9.34
2023-04-08T00:13:06.407Z,9.22
2023-04-08T00:18:08.262Z,9.35
2023-04-08T00:23:06.973Z,9.53
2023-04-08T00:28:05.706Z,9.49
2023-04-08T00:33:06.129Z,9.55
2023-04-08T00:38:08.064Z,9.52
2023-04-08T00:43:06.752Z,9.60
2023-04-08T00:48:07.585Z,9.69
2023-04-08T00:53:06.767Z,9.61
2023-04-08T00:58:05.755Z,9.54
2023-04-08T01:03:16.215Z,9.53
2023-04-08T01:08:16.824Z,9.58
2023-04-08T01:13:19.476Z,9.66
2023-04-08T01:18:22.771Z,9.62
2023-04-08T01:23:31.163Z,9.64
2023-04-08T01:28:32.765Z,9.69
2023-04-08T01:33:33.149Z,9.67
2023-04-08T01:38:34.438Z,9.58
2023-04-08T01:43:35.344Z,9.59
2023-04-08T01:48:36.715Z,9.60
2023-04-08T01:53:36.024Z,9.63
2023-04-08T01:58:41.012Z,9.62
2023-04-08T02:03:42.841Z,9.62
2023-04-08T02:08:41.671Z,9.63
2023-04-08T02:13:41.987Z,9.60
2023-04-08T02:18:44.838Z,9.58
2023-04-08T02:23:50.282Z,9.61
2023-04-08T02:28:51.386Z,9.58
2023-04-08T02:33:54.766Z,9.58
2023-04-08T02:38:53.588Z,9.61
2023-04-08T02:43:55.557Z,9.58
2023-04-08T02:48:55.075Z,9.58
2023-04-08T02:53:53.781Z,9.53
2023-04-08T02:58:53.916Z,9.56
2023-04-08T03:03:52.704Z,9.52
2023-04-08T03:08:51.897Z,9.49
2023-04-08T03:13:50.733Z,9.47
2023-04-08T03:18:52.510Z,9.36
2023-04-08T03:23:51.430Z,9.26
2023-04-08T03:28:50.285Z,9.23
2023-04-08T03:33:49.298Z,9.25
2023-04-08T03:38:49.628Z,9.17
2023-04-08T03:43:48.592Z,9.17
2023-04-08T03:48:48.602Z,9.16
2023-04-08T03:53:49.374Z,9.16
2023-04-08T03:58:48.212Z,9.22
2023-04-08T04:03:47.175Z,9.23
2023-04-08T04:08:46.550Z,9.25
2023-04-08T04:13:46.607Z,9.28
2023-04-08T04:18:45.465Z,9.34
2023-04-08T04:23:44.334Z,9.26
2023-04-08T04:28:43.020Z,9.27
2023-04-08T04:33:43.094Z,9.30
2023-04-08T04:38:42.916Z,9.33
2023-04-08T04:43:41.842Z,9.42
2023-04-08T04:48:40.695Z,9.43
2023-04-08T04:53:40.908Z,9.40
2023-04-08T04:58:39.671Z,9.55
2023-04-08T05:03:40.719Z,9.57
2023-04-08T05:08:41.214Z,9.68
2023-04-08T05:13:39.898Z,9.73
2023-04-08T05:18:38.741Z,9.81
2023-04-08T05:23:37.533Z,9.92
2023-04-08T05:28:37.740Z,9.93
2023-04-08T05:33:36.458Z,10.01
2023-04-08T05:38:35.154Z,10.02
2023-04-08T05:43:34.324Z,10.04
2023-04-08T05:48:34.578Z,10.11
2023-04-08T05:53:33.415Z,10.11
2023-04-08T05:58:32.169Z,10.33
2023-04-08T06:03:32.041Z,10.37
2023-04-08T06:08:32.342Z,10.59
2023-04-08T06:13:31.081Z,11.44
2023-04-08T06:18:29.802Z,11.66
2023-04-08T06:23:30.898Z,11.38
2023-04-08T06:28:32.176Z,11.30
2023-04-08T06:33:31.067Z,11.40
2023-04-08T06:38:32.505Z,11.34
2023-04-08T06:43:32.734Z,11.31
2023-04-08T06:48:31.606Z,11.66
2023-04-08T06:53:31.407Z,11.84
2023-04-08T06:58:31.036Z,11.74
2023-04-08T07:03:31.272Z,11.77
2023-04-08T07:08:30.158Z,13.53
2023-04-08T07:13:29.844Z,13.09
2023-04-08T07:18:28.588Z,12.50
2023-04-08T07:23:28.819Z,12.51
2023-04-08T07:28:27.505Z,12.28
2023-04-08T07:33:27.081Z,12.25
2023-04-08T07:38:30.242Z,12.67
2023-04-08T07:43:29.228Z,12.77
2023-04-08T07:48:27.947Z,12.74
2023-04-08T07:53:30.261Z,12.46
2023-04-08T07:58:30.291Z,12.67
2023-04-08T08:03:30.738Z,12.82
2023-04-08T08:08:33.522Z,13.04
2023-04-08T08:13:34.388Z,13.17
2023-04-08T08:18:33.082Z,13.23
2023-04-08T08:23:31.801Z,13.25
2023-04-08T08:28:30.634Z,13.62
2023-04-08T08:33:31.007Z,13.78
2023-04-08T08:38:29.759Z,14.07
2023-04-08T08:43:30.139Z,14.44
2023-04-08T08:48:30.660Z,14.44
2023-04-08T08:53:34.246Z,14.96
2023-04-08T08:58:34.887Z,15.58
2023-04-08T09:03:35.145Z,16.30
2023-04-08T09:08:35.566Z,16.55
2023-04-08T09:13:37.753Z,17.17
2023-04-08T09:18:38.713Z,17.55
2023-04-08T09:23:42.598Z,18.00
2023-04-08T09:28:43.114Z,18.47
2023-04-08T09:33:43.254Z,18.70
2023-04-08T09:38:42.056Z,18.37
2023-04-08T09:43:49.124Z,18.62
2023-04-08T09:48:52.549Z,18.84
2023-04-08T09:53:57.682Z,18.72
2023-04-08T09:59:00.954Z,19.18
2023-04-08T10:04:10.176Z,19.33
2023-04-08T10:09:10.466Z,20.03
2023-04-08T10:14:11.550Z,19.76
2023-04-08T10:19:42.193Z,18.66
2023-04-08T10:24:41.353Z,17.92
2023-04-08T10:29:42.493Z,18.07
2023-04-08T10:34:54.257Z,17.67
2023-04-08T10:39:55.878Z,17.57
2023-04-08T10:44:54.630Z,17.56
2023-04-08T10:49:54.854Z,17.89
2023-04-08T10:54:55.757Z,18.47
2023-04-08T10:59:54.769Z,18.54
2023-04-08T11:04:57.557Z,18.82
2023-04-08T11:09:56.657Z,18.79
2023-04-08T11:14:55.426Z,18.88
2023-04-08T11:19:54.362Z,19.13
2023-04-08T11:24:54.737Z,19.23
2023-04-08T11:29:55.106Z,19.27
2023-04-08T11:34:57.980Z,19.40
2023-04-08T11:39:58.446Z,18.92
2023-04-08T11:44:57.625Z,19.02
2023-04-08T11:49:58.371Z,19.12
2023-04-08T11:54:58.566Z,19.56
2023-04-08T12:00:00.640Z,19.49
2023-04-08T12:04:59.427Z,20.63
2023-04-08T12:09:59.575Z,21.22
2023-04-08T12:14:58.406Z,20.50
2023-04-08T12:19:57.386Z,21.05
2023-04-08T12:24:58.207Z,21.49
2023-04-08T12:30:02.324Z,21.70
2023-04-08T12:35:04.370Z,21.46
2023-04-08T12:40:03.410Z,21.02
2023-04-08T12:45:03.713Z,20.76
2023-04-08T12:50:02.476Z,20.87
2023-04-08T12:55:01.289Z,20.40
2023-04-08T13:00:00.083Z,19.49
2023-04-08T13:05:00.284Z,19.02
2023-04-08T13:09:59.004Z,19.13
2023-04-08T13:14:58.543Z,18.24
2023-04-08T13:19:57.284Z,18.40
2023-04-08T13:24:57.686Z,18.59
2023-04-08T13:29:56.484Z,18.49
2023-04-08T13:34:55.264Z,18.62
2023-04-08T13:39:53.965Z,18.45
2023-04-08T13:44:54.047Z,18.46
2023-04-08T13:49:53.458Z,18.22
2023-04-08T13:54:52.158Z,17.58
2023-04-08T13:59:51.031Z,17.25
2023-04-08T14:04:52.450Z,17.14
2023-04-08T14:09:51.733Z,16.27
2023-04-08T14:14:50.607Z,15.50
2023-04-08T14:19:51.173Z,15.38
2023-04-08T14:24:49.785Z,15.31
2023-04-08T14:29:48.462Z,14.80
2023-04-08T14:34:47.137Z,14.71
2023-04-08T14:39:47.375Z,14.46
2023-04-08T14:44:46.082Z,14.18
2023-04-08T14:49:44.843Z,14.29
2023-04-08T14:54:45.325Z,14.29
2023-04-08T14:59:50.746Z,14.39
2023-04-08T15:04:49.641Z,14.37
2023-04-08T15:09:48.421Z,14.33
2023-04-08T15:14:48.685Z,14.38
2023-04-08T15:19:47.683Z,14.40
2023-04-08T15:24:50.183Z,14.56
2023-04-08T15:29:50.512Z,14.62
2023-04-08T15:34:51.201Z,14.57
2023-04-08T15:39:49.904Z,14.48
2023-04-08T15:44:50.373Z,14.32
2023-04-08T15:49:49.068Z,14.30
2023-04-08T15:54:47.809Z,14.43
2023-04-08T15:59:46.546Z,14.43
2023-04-08T16:04:47.804Z,14.39
2023-04-08T16:09:47.200Z,14.43
2023-04-08T16:14:46.415Z,14.50
2023-04-08T16:19:47.229Z,14.46
2023-04-08T16:24:46.276Z,14.32
2023-04-08T16:29:44.973Z,14.15
2023-04-08T16:34:43.864Z,13.72
2023-04-08T16:39:44.001Z,13.71
2023-04-08T16:44:43.043Z,13.48
2023-04-08T16:49:41.765Z,13.49
2023-04-08T16:54:40.389Z,13.32
2023-04-08T16:59:40.485Z,13.30
2023-04-08T17:04:40.590Z,13.17
2023-04-08T17:09:39.402Z,13.19
2023-04-08T17:14:38.256Z,13.16
2023-04-08T17:19:38.320Z,13.28
2023-04-08T17:24:37.061Z,13.25
2023-04-08T17:29:35.798Z,13.32
2023-04-08T17:34:34.511Z,13.20
2023-04-08T17:39:40.717Z,13.13
2023-04-08T17:44:42.239Z,13.25
2023-04-08T17:49:41.168Z,13.33
2023-04-08T17:54:41.540Z,13.28
2023-04-08T17:59:40.277Z,13.17
2023-04-08T18:04:39.038Z,13.13
2023-04-08T18:09:38.104Z,13.19
2023-04-08T18:14:38.356Z,13.19
2023-04-08T18:19:37.050Z,13.15
2023-04-08T18:24:35.774Z,13.10
2023-04-08T18:29:34.663Z,13.13
2023-04-08T18:34:35.005Z,12.90
2023-04-08T18:39:34.010Z,12.84
2023-04-08T18:44:32.813Z,12.74
2023-04-08T18:49:33.358Z,12.75
2023-04-08T18:54:34.238Z,12.55
2023-04-08T18:59:33.029Z,12.60
2023-04-08T19:04:32.002Z,12.49
2023-04-08T19:09:31.145Z,12.48
2023-04-08T19:14:31.385Z,12.37
2023-04-08T19:19:30.302Z,12.34
2023-04-08T19:24:28.995Z,12.27
2023-04-08T19:29:29.826Z,12.03
2023-04-08T19:34:32.126Z,11.91
2023-04-08T19:39:30.938Z,11.85
2023-04-08T19:44:29.643Z,11.82
2023-04-08T19:49:29.477Z,11.93
2023-04-08T19:54:30.287Z,11.92
2023-04-08T19:59:29.108Z,11.93
2023-04-08T20:04:27.916Z,11.95
2023-04-08T20:09:26.674Z,11.90
2023-04-08T20:14:27.230Z,11.91
2023-04-08T20:19:26.273Z,11.81
2023-04-08T20:24:25.190Z,11.83
2023-04-08T20:29:24.120Z,11.82
2023-04-08T20:34:24.510Z,11.74
2023-04-08T20:39:29.504Z,11.73
2023-04-08T20:44:28.837Z,11.73
2023-04-08T20:49:29.040Z,11.74
2023-04-08T20:54:30.799Z,11.68
2023-04-08T20:59:29.555Z,11.62
2023-04-08T21:04:32.061Z,11.61
2023-04-08T21:09:31.560Z,11.53
2023-04-08T21:14:35.826Z,11.54
2023-04-08T21:19:41.162Z,11.43
2023-04-08T21:24:49.113Z,11.38
2023-04-08T21:30:00.768Z,11.26
2023-04-08T21:35:07.500Z,11.30
2023-04-08T21:40:13.135Z,11.31
2023-04-08T21:45:18.411Z,11.34
2023-04-08T21:50:26.795Z,11.38
2023-04-08T21:55:27.201Z,11.42
2023-04-08T22:00:25.958Z,11.42
2023-04-08T22:05:26.128Z,11.34
2023-04-08T22:10:25.082Z,11.27
2023-04-08T22:15:24.125Z,11.23
2023-04-08T22:20:22.868Z,11.21
2023-04-08T22:25:23.135Z,11.18
2023-04-08T22:30:22.566Z,11.16
2023-04-08T22:35:21.561Z,11.19
2023-04-08T22:40:20.471Z,11.22
2023-04-08T22:45:20.824Z,11.25
2023-04-08T22:50:22.180Z,11.21
2023-04-08T22:55:21.277Z,11.20
2023-04-08T23:00:21.737Z,11.20
2023-04-08T23:05:20.516Z,11.17
2023-04-08T23:10:19.453Z,11.17
2023-04-08T23:15:18.444Z,11.18
2023-04-08T23:20:18.738Z,11.23
2023-04-08T23:25:17.463Z,11.24
2023-04-08T23:30:16.255Z,11.25
2023-04-08T23:35:16.588Z,11.18
2023-04-08T23:40:16.943Z,11.18
2023-04-08T23:45:15.688Z,11.17
2023-04-08T23:50:14.441Z,11.13
2023-04-08T23:55:13.567Z,11.15
